Time;durP1;ratioP1;P1;durP2;ratioP2;P2;SDS_P1;SDS_P2;PMS_P1;PMS_P2;Temp;Humidity;BMP_temperature;BMP_pressure;BME280_temperature;BME280_humidity;BME280_pressure;Samples;Min_cycle;Max_cycle;Signal;HPM_P1;HPM_P2
2021/08/07 00:01:25;;;;;;;1.20;1.10;;;16.30;98.00;;;;;;5090735;28;20525;-74
2021/08/07 00:03:54;;;;;;;2.90;1.30;;;16.20;98.00;;;;;;5075774;28;20487;-75
2021/08/07 00:06:21;;;;;;;1.20;1.10;;;16.00;98.00;;;;;;5094874;28;20889;-75
2021/08/07 00:08:48;;;;;;;1.83;1.10;;;15.80;98.00;;;;;;5094234;28;20456;-75
2021/08/07 00:11:15;;;;;;;1.40;1.10;;;15.70;98.00;;;;;;5094980;28;20509;-75
2021/08/07 00:13:42;;;;;;;1.20;1.10;;;15.70;98.00;;;;;;5094794;28;20529;-75
2021/08/07 00:16:09;;;;;;;1.20;1.03;;;15.90;98.00;;;;;;5094677;28;20495;-75
2021/08/07 00:18:36;;;;;;;1.20;1.20;;;15.80;98.00;;;;;;5094776;28;20941;-75
2021/08/07 00:21:04;;;;;;;1.20;1.10;;;15.80;98.00;;;;;;5094724;28;20484;-75
2021/08/07 00:23:31;;;;;;;1.40;1.10;;;15.60;98.00;;;;;;5094577;28;20649;-74
2021/08/07 00:25:58;;;;;;;1.20;1.03;;;15.60;98.00;;;;;;5094634;28;20818;-75
2021/08/07 00:28:25;;;;;;;1.20;1.00;;;15.50;98.00;;;;;;5094603;28;20572;-75
2021/08/07 00:30:52;;;;;;;1.87;1.37;;;15.50;98.00;;;;;;5094517;28;20507;-75
2021/08/07 00:33:19;;;;;;;1.20;1.00;;;15.40;98.00;;;;;;5094837;28;20455;-75
2021/08/07 00:35:47;;;;;;;1.20;1.10;;;15.40;98.00;;;;;;5094662;28;20519;-75
2021/08/07 00:38:15;;;;;;;1.20;0.90;;;15.30;98.00;;;;;;5094613;28;20950;-75
2021/08/07 00:40:42;;;;;;;1.40;1.13;;;15.30;98.00;;;;;;5094356;28;20510;-74
2021/08/07 00:43:10;;;;;;;1.20;1.07;;;15.30;98.00;;;;;;5095051;28;20479;-75
2021/08/07 00:45:38;;;;;;;1.20;1.00;;;15.30;98.00;;;;;;5095797;28;20937;-75
2021/08/07 00:48:08;;;;;;;1.20;1.10;;;15.30;98.00;;;;;;5094145;28;20825;-75
2021/08/07 00:50:35;;;;;;;1.60;1.30;;;15.40;98.00;;;;;;5095293;28;20502;-75
2021/08/07 00:53:03;;;;;;;1.20;1.10;;;15.60;98.00;;;;;;5095196;28;20448;-75
2021/08/07 00:55:33;;;;;;;1.60;1.20;;;15.80;98.00;;;;;;5094127;28;20459;-75
2021/08/07 00:58:00;;;;;;;1.30;1.30;;;15.90;98.00;;;;;;5093652;28;20525;-75
2021/08/07 01:00:28;;;;;;;1.20;1.10;;;15.90;98.00;;;;;;5076241;28;20451;-75
2021/08/07 01:03:06;;;;;;;1.40;1.17;;;15.80;98.00;;;;;;5093971;28;20488;-75
2021/08/07 01:05:41;;;;;;;1.57;1.10;;;15.70;98.00;;;;;;5094049;28;20513;-75
2021/08/07 01:08:16;;;;;;;1.20;1.00;;;15.70;98.00;;;;;;5093874;28;20498;-75
2021/08/07 01:10:53;;;;;;;1.20;1.10;;;15.80;98.00;;;;;;5094001;28;20559;-75
2021/08/07 01:13:24;;;;;;;1.30;1.20;;;15.80;98.00;;;;;;5093750;28;20477;-75
2021/08/07 01:16:00;;;;;;;1.67;1.50;;;15.80;98.00;;;;;;5092795;28;20457;-75
2021/08/07 01:18:30;;;;;;;1.40;1.10;;;15.80;98.00;;;;;;5093709;28;20472;-75
2021/08/07 01:20:59;;;;;;;1.20;1.10;;;15.80;98.00;;;;;;5093666;28;20494;-75
2021/08/07 01:23:41;;;;;;;1.20;1.20;;;15.90;98.00;;;;;;5093390;28;20552;-75
2021/08/07 01:26:15;;;;;;;1.40;1.17;;;15.80;98.00;;;;;;5093390;28;20946;-75
2021/08/07 01:28:46;;;;;;;1.40;1.10;;;15.90;98.00;;;;;;5093513;28;20464;-75
2021/08/07 01:31:14;;;;;;;1.20;1.00;;;16.10;98.00;;;;;;5093213;28;20896;-75
2021/08/07 01:33:44;;;;;;;2.23;1.57;;;16.00;98.00;;;;;;5093298;28;20462;-75
2021/08/07 01:36:11;;;;;;;1.20;1.00;;;16.10;98.00;;;;;;5075182;28;20495;-74
2021/08/07 01:38:39;;;;;;;1.20;1.00;;;16.00;98.00;;;;;;5093194;28;20455;-75
2021/08/07 01:41:14;;;;;;;1.20;1.07;;;16.00;98.00;;;;;;5093469;28;20460;-75
2021/08/07 01:43:45;;;;;;;1.30;1.20;;;15.90;98.00;;;;;;5093062;28;20623;-75
2021/08/07 01:46:13;;;;;;;1.30;1.23;;;15.90;98.00;;;;;;5092996;28;20448;-75
2021/08/07 01:48:46;;;;;;;1.20;1.10;;;15.90;98.00;;;;;;5093278;28;20491;-75
2021/08/07 01:51:17;;;;;;;1.20;1.10;;;16.00;98.00;;;;;;5092933;28;20517;-74
2021/08/07 01:53:46;;;;;;;1.20;1.13;;;16.10;98.00;;;;;;5092841;28;20949;-74
2021/08/07 01:56:18;;;;;;;1.20;1.00;;;16.00;98.00;;;;;;5092720;28;20464;-75
2021/08/07 01:58:53;;;;;;;1.20;1.10;;;16.10;98.00;;;;;;5092817;28;20460;-75
2021/08/07 02:01:24;;;;;;;1.20;1.03;;;16.10;98.00;;;;;;5092977;28;20461;-75
2021/08/07 02:03:54;;;;;;;1.67;1.30;;;16.00;98.00;;;;;;5092665;28;20484;-75
2021/08/07 02:06:22;;;;;;;1.20;1.13;;;16.00;98.00;;;;;;5092452;28;20472;-74
2021/08/07 02:08:49;;;;;;;1.20;1.00;;;15.80;98.00;;;;;;5092756;28;20885;-75
2021/08/07 02:11:18;;;;;;;1.20;1.10;;;15.80;98.00;;;;;;5092536;28;20456;-75
2021/08/07 02:13:48;;;;;;;1.30;1.10;;;15.80;98.00;;;;;;5092643;28;20456;-75
2021/08/07 02:16:16;;;;;;;1.63;1.57;;;15.90;98.00;;;;;;5092583;28;20512;-74
2021/08/07 02:18:45;;;;;;;1.20;1.10;;;16.10;98.00;;;;;;5092624;28;20858;-75
2021/08/07 02:21:13;;;;;;;1.40;1.10;;;16.30;98.00;;;;;;5075064;28;20444;-75
2021/08/07 02:23:41;;;;;;;1.20;1.10;;;16.30;98.00;;;;;;5092470;28;20515;-75
2021/08/07 02:26:10;;;;;;;1.40;1.27;;;16.40;98.00;;;;;;5074520;28;20870;-74
2021/08/07 02:28:37;;;;;;;1.50;1.30;;;16.30;98.00;;;;;;5092243;28;20521;-75
2021/08/07 02:31:09;;;;;;;1.40;1.40;;;16.30;98.00;;;;;;5092124;28;20882;-75
2021/08/07 02:33:38;;;;;;;1.20;1.10;;;16.20;98.00;;;;;;5092199;28;20464;-75
2021/08/07 02:36:05;;;;;;;1.20;1.20;;;16.10;98.00;;;;;;5074209;28;20448;-75
2021/08/07 02:38:34;;;;;;;1.73;1.30;;;16.00;98.00;;;;;;5091994;28;20490;-75
2021/08/07 02:41:02;;;;;;;1.30;1.20;;;16.00;98.00;;;;;;5074111;28;20464;-75
2021/08/07 02:43:29;;;;;;;1.30;1.10;;;15.90;98.00;;;;;;5073931;28;20556;-75
2021/08/07 02:45:57;;;;;;;1.50;1.03;;;15.70;98.00;;;;;;5091942;28;20483;-75
2021/08/07 02:48:28;;;;;;;1.20;1.00;;;15.70;98.00;;;;;;5091729;28;20455;-75
2021/08/07 02:50:55;;;;;;;2.17;1.53;;;15.70;98.00;;;;;;5091762;28;20509;-75
2021/08/07 02:53:23;;;;;;;1.60;1.30;;;15.70;98.00;;;;;;5091713;28;20455;-75
2021/08/07 02:55:50;;;;;;;1.20;1.10;;;15.80;98.00;;;;;;5091822;28;20491;-75
2021/08/07 02:58:17;;;;;;;1.20;1.10;;;15.80;98.00;;;;;;5091626;28;20541;-75
2021/08/07 03:00:44;;;;;;;1.20;1.10;;;15.80;98.00;;;;;;5091986;28;20884;-75
2021/08/07 03:03:16;;;;;;;1.40;1.20;;;15.90;98.00;;;;;;5091602;28;20553;-75
2021/08/07 03:05:44;;;;;;;1.20;1.10;;;15.90;98.00;;;;;;5091565;28;20543;-75
2021/08/07 03:08:11;;;;;;;1.20;1.00;;;15.90;98.00;;;;;;5091313;28;20506;-75
2021/08/07 03:10:38;;;;;;;1.40;1.27;;;15.90;98.00;;;;;;5091517;28;20604;-75
2021/08/07 03:13:06;;;;;;;1.30;1.23;;;15.80;98.00;;;;;;5091595;28;20460;-75
2021/08/07 03:15:33;;;;;;;1.30;1.10;;;15.90;98.00;;;;;;5091539;28;20817;-75
2021/08/07 03:18:00;;;;;;;1.20;1.00;;;15.90;98.00;;;;;;5091482;28;20455;-75
2021/08/07 03:20:31;;;;;;;1.60;1.40;;;16.00;98.00;;;;;;5091313;28;20487;-75
2021/08/07 03:23:01;;;;;;;1.20;1.10;;;16.00;98.00;;;;;;5091121;28;20571;-75
2021/08/07 03:25:28;;;;;;;1.40;1.33;;;15.90;98.00;;;;;;5091266;28;20460;-75
2021/08/07 03:27:56;;;;;;;1.20;1.00;;;15.70;98.00;;;;;;5091165;28;20509;-75
2021/08/07 03:30:24;;;;;;;1.20;1.10;;;15.50;98.00;;;;;;5073074;28;20463;-75
2021/08/07 03:32:51;;;;;;;1.30;1.10;;;15.40;98.00;;;;;;5091097;28;20591;-75
2021/08/07 03:35:19;;;;;;;1.30;1.20;;;15.30;98.00;;;;;;5091221;28;20517;-75
2021/08/07 03:37:46;;;;;;;1.20;1.00;;;15.20;98.00;;;;;;5090669;28;20458;-75
2021/08/07 03:40:16;;;;;;;1.27;1.07;;;15.20;98.00;;;;;;5091240;28;20462;-75
2021/08/07 03:42:44;;;;;;;1.33;1.30;;;15.20;98.00;;;;;;5091314;28;20509;-75
2021/08/07 03:45:12;;;;;;;1.20;1.00;;;15.00;98.00;;;;;;5091260;28;20454;-75
2021/08/07 03:47:47;;;;;;;1.40;1.13;;;15.10;98.00;;;;;;5090950;28;20459;-75
2021/08/07 03:50:15;;;;;;;1.20;1.10;;;15.20;98.00;;;;;;5090980;28;20975;-75
2021/08/07 03:52:42;;;;;;;1.30;1.10;;;15.10;98.00;;;;;;5056075;28;20539;-75
2021/08/07 03:55:09;;;;;;;1.30;1.20;;;15.10;98.00;;;;;;5090834;28;20518;-75
2021/08/07 03:58:00;;;;;;;1.50;1.23;;;15.10;98.00;;;;;;5091095;28;20477;-75
2021/08/07 04:00:29;;;;;;;1.20;1.20;;;15.00;98.00;;;;;;5085134;28;20598;-75
2021/08/07 04:02:56;;;;;;;1.20;1.00;;;15.10;98.00;;;;;;5090723;28;20495;-75
2021/08/07 04:05:23;;;;;;;1.50;1.10;;;15.40;98.00;;;;;;5090692;28;20479;-75
2021/08/07 04:07:50;;;;;;;1.20;1.10;;;15.50;98.00;;;;;;5090864;28;20455;-75
2021/08/07 04:10:19;;;;;;;1.90;1.27;;;15.50;98.00;;;;;;5090682;28;20537;-74
2021/08/07 04:12:46;;;;;;;1.50;1.27;;;15.40;98.00;;;;;;5090653;28;20460;-75
2021/08/07 04:15:15;;;;;;;1.60;1.37;;;15.40;98.00;;;;;;5090797;28;20508;-75
2021/08/07 04:17:42;;;;;;;1.60;1.20;;;15.40;98.00;;;;;;5090990;28;20480;-74
2021/08/07 04:20:10;;;;;;;1.93;1.00;;;15.60;98.00;;;;;;5090669;28;21016;-74
2021/08/07 04:22:39;;;;;;;1.20;1.00;;;15.40;98.00;;;;;;5090621;28;20765;-75
2021/08/07 04:25:07;;;;;;;2.07;1.30;;;15.30;98.00;;;;;;5090772;28;20524;-75
2021/08/07 04:27:35;;;;;;;1.40;1.10;;;15.20;98.00;;;;;;5090540;28;20536;-75
2021/08/07 04:30:02;;;;;;;1.20;1.00;;;15.10;98.00;;;;;;5090736;28;20894;-75
2021/08/07 04:32:31;;;;;;;1.90;1.30;;;15.10;98.00;;;;;;5090463;28;20587;-75
2021/08/07 04:34:58;;;;;;;1.20;0.90;;;15.10;98.00;;;;;;5090522;28;20851;-75
2021/08/07 04:37:25;;;;;;;1.80;1.17;;;15.20;98.00;;;;;;5090486;28;20768;-75
2021/08/07 04:39:52;;;;;;;1.20;0.90;;;15.20;98.00;;;;;;5090549;28;20456;-75
2021/08/07 04:42:19;;;;;;;1.20;1.10;;;15.50;98.00;;;;;;5090386;28;20460;-74
2021/08/07 04:44:46;;;;;;;1.20;1.00;;;15.50;98.00;;;;;;5090236;28;20496;-75
2021/08/07 04:47:13;;;;;;;1.20;1.20;;;15.60;98.00;;;;;;5090506;28;20517;-75
2021/08/07 04:49:41;;;;;;;1.20;1.20;;;15.70;98.00;;;;;;5091190;28;20464;-74
2021/08/07 04:52:09;;;;;;;1.30;1.23;;;15.70;98.00;;;;;;5094066;28;20660;-75
2021/08/07 04:54:36;;;;;;;1.20;1.00;;;15.70;98.00;;;;;;5076212;28;20480;-75
2021/08/07 04:57:03;;;;;;;1.30;1.10;;;15.80;98.00;;;;;;5094074;28;20455;-74
2021/08/07 04:59:30;;;;;;;1.23;1.00;;;15.80;98.00;;;;;;5094321;28;20488;-74
2021/08/07 05:01:57;;;;;;;1.30;1.10;;;16.00;98.00;;;;;;5094182;28;20452;-74
2021/08/07 05:04:24;;;;;;;1.20;1.10;;;15.90;98.00;;;;;;5094199;28;20519;-75
2021/08/07 05:06:53;;;;;;;1.47;1.30;;;15.90;98.00;;;;;;5093905;28;20460;-74
2021/08/07 05:09:20;;;;;;;1.30;1.10;;;16.00;98.00;;;;;;5076023;28;20937;-75
2021/08/07 05:11:47;;;;;;;1.93;1.30;;;16.00;98.00;;;;;;5093621;28;20459;-75
2021/08/07 05:14:14;;;;;;;1.20;1.20;;;16.10;98.00;;;;;;5093768;28;20494;-75
2021/08/07 05:16:41;;;;;;;1.20;1.13;;;16.10;98.00;;;;;;5093725;28;20464;-75
2021/08/07 05:19:08;;;;;;;1.20;1.00;;;16.20;98.00;;;;;;5093662;28;20447;-75
2021/08/07 05:21:35;;;;;;;1.20;1.10;;;16.20;98.00;;;;;;5093525;28;20452;-75
2021/08/07 05:24:05;;;;;;;1.27;1.13;;;16.00;98.00;;;;;;5093534;28;20515;-75
2021/08/07 05:26:32;;;;;;;1.20;1.10;;;16.00;98.00;;;;;;5093392;28;20523;-75
2021/08/07 05:28:59;;;;;;;1.30;1.10;;;16.00;98.00;;;;;;5093583;28;20700;-75
2021/08/07 05:31:26;;;;;;;1.20;1.10;;;16.00;98.00;;;;;;5073908;28;20471;-75
2021/08/07 05:33:53;;;;;;;1.20;1.20;;;16.10;98.00;;;;;;5093174;28;20459;-74
2021/08/07 05:36:20;;;;;;;1.23;1.17;;;16.20;98.00;;;;;;5058456;28;20448;-75
2021/08/07 05:38:50;;;;;;;1.43;1.37;;;16.20;98.00;;;;;;5093273;28;20557;-75
2021/08/07 05:41:19;;;;;;;1.20;1.00;;;16.20;98.00;;;;;;5075312;28;20491;-74
2021/08/07 05:43:46;;;;;;;1.20;1.20;;;16.20;98.00;;;;;;5093066;28;20491;-75
2021/08/07 05:46:13;;;;;;;1.37;1.37;;;16.40;98.00;;;;;;5093055;28;20459;-75
2021/08/07 05:48:40;;;;;;;1.73;1.40;;;16.50;98.00;;;;;;5075207;28;21225;-75
2021/08/07 05:51:07;;;;;;;1.30;1.30;;;16.60;98.00;;;;;;5093050;28;20494;-75
2021/08/07 05:53:34;;;;;;;1.20;1.20;;;16.60;98.00;;;;;;5092770;28;20961;-75
2021/08/07 05:56:01;;;;;;;1.30;1.23;;;16.60;98.00;;;;;;5092986;28;20900;-76
2021/08/07 05:58:32;;;;;;;2.20;1.50;;;16.80;98.00;;;;;;5092784;28;20520;-75
2021/08/07 06:00:59;;;;;;;1.30;1.27;;;16.80;98.00;;;;;;5092648;28;20466;-75
2021/08/07 06:03:26;;;;;;;1.47;1.37;;;16.70;98.00;;;;;;5092814;28;20919;-75
2021/08/07 06:05:53;;;;;;;1.20;1.20;;;16.70;98.00;;;;;;5074861;28;20491;-75
2021/08/07 06:08:20;;;;;;;1.30;1.17;;;16.70;98.00;;;;;;5074709;28;20945;-74
2021/08/07 06:10:47;;;;;;;1.30;1.10;;;16.80;98.00;;;;;;5074744;28;20799;-74
2021/08/07 06:13:14;;;;;;;1.93;1.30;;;16.90;98.00;;;;;;5074381;28;20768;-74
2021/08/07 06:15:43;;;;;;;1.20;1.10;;;16.90;98.00;;;;;;5092633;28;20540;-74
2021/08/07 06:18:10;;;;;;;1.20;1.10;;;17.00;98.00;;;;;;5092691;28;20451;-74
2021/08/07 06:20:37;;;;;;;1.37;1.10;;;17.10;98.00;;;;;;5092349;28;20491;-74
2021/08/07 06:23:04;;;;;;;1.40;1.23;;;17.20;98.00;;;;;;5092494;28;20452;-74
2021/08/07 06:25:31;;;;;;;2.10;1.40;;;17.40;98.00;;;;;;5092368;28;20456;-74
2021/08/07 06:27:58;;;;;;;2.50;1.30;;;17.40;98.00;;;;;;5092425;28;20452;-74
2021/08/07 06:30:27;;;;;;;1.37;1.20;;;17.50;98.00;;;;;;5091751;28;20537;-73
2021/08/07 06:32:57;;;;;;;1.20;1.00;;;17.50;98.00;;;;;;5092025;28;20958;-74
2021/08/07 06:35:25;;;;;;;1.40;1.13;;;17.30;98.00;;;;;;5092361;28;20452;-74
2021/08/07 06:37:53;;;;;;;2.17;1.40;;;17.20;98.00;;;;;;5092034;28;20798;-74
2021/08/07 06:40:20;;;;;;;3.20;1.10;;;17.00;98.00;;;;;;5092305;28;20479;-74
2021/08/07 06:42:47;;;;;;;1.40;1.40;;;16.90;98.00;;;;;;5091820;28;20460;-73
2021/08/07 06:45:14;;;;;;;1.30;1.27;;;17.00;98.00;;;;;;5073943;28;20480;-74
2021/08/07 06:47:41;;;;;;;1.50;1.20;;;17.20;98.00;;;;;;5091953;28;20451;-75
2021/08/07 06:50:10;;;;;;;1.50;1.40;;;17.40;98.00;;;;;;5092017;28;20805;-75
2021/08/07 06:52:38;;;;;;;1.40;1.23;;;17.50;98.00;;;;;;5091810;28;20492;-74
2021/08/07 06:55:05;;;;;;;1.30;1.13;;;17.70;98.00;;;;;;5091855;28;20452;-75
2021/08/07 06:57:32;;;;;;;1.43;1.30;;;17.90;98.00;;;;;;5073518;28;20460;-75
2021/08/07 07:00:01;;;;;;;1.40;1.23;;;18.00;98.00;;;;;;5091754;28;20518;-74
2021/08/07 07:02:28;;;;;;;1.40;1.20;;;18.10;98.00;;;;;;5091444;28;20957;-75
2021/08/07 07:04:55;;;;;;;1.40;1.30;;;18.30;98.00;;;;;;5091652;28;20484;-74
2021/08/07 07:07:23;;;;;;;1.30;1.30;;;18.60;98.00;;;;;;5091506;28;20945;-75
2021/08/07 07:09:50;;;;;;;1.30;1.13;;;18.70;98.00;;;;;;5091673;28;20452;-74
2021/08/07 07:12:17;;;;;;;2.90;1.50;;;18.80;98.00;;;;;;5088415;28;20456;-74
2021/08/07 07:14:47;;;;;;;1.97;1.20;;;18.90;98.00;;;;;;5068943;28;20499;-73
2021/08/07 07:17:14;;;;;;;1.70;1.30;;;19.00;98.00;;;;;;5077915;28;20554;-73
2021/08/07 07:19:41;;;;;;;1.60;1.30;;;19.10;98.00;;;;;;5078917;28;20914;-72
2021/08/07 07:22:08;;;;;;;1.37;1.27;;;19.10;98.00;;;;;;5069957;28;21036;-74
2021/08/07 07:24:36;;;;;;;1.47;1.37;;;19.20;98.00;;;;;;5077694;28;20553;-74
2021/08/07 07:27:04;;;;;;;1.20;1.10;;;19.30;98.00;;;;;;5069531;28;20488;-73
2021/08/07 07:29:31;;;;;;;1.20;1.10;;;19.30;98.00;;;;;;5070085;28;20526;-74
2021/08/07 07:31:58;;;;;;;1.70;1.63;;;19.50;98.00;;;;;;5070552;28;20500;-73
2021/08/07 07:34:26;;;;;;;1.50;1.20;;;19.70;98.00;;;;;;5078109;28;20447;-74
2021/08/07 07:36:53;;;;;;;1.20;1.10;;;19.90;98.00;;;;;;5061315;28;20540;-74
2021/08/07 07:39:20;;;;;;;1.30;1.27;;;20.10;98.00;;;;;;5078062;28;20536;-74
2021/08/07 07:41:49;;;;;;;1.30;1.10;;;20.10;98.00;;;;;;5052057;28;20502;-73
2021/08/07 07:44:16;;;;;;;1.20;1.00;;;20.10;98.00;;;;;;5069943;28;20583;-74
2021/08/07 07:46:43;;;;;;;1.23;1.17;;;20.00;98.00;;;;;;5076390;28;20452;-74
2021/08/07 07:49:10;;;;;;;1.47;1.20;;;19.90;98.00;;;;;;5078629;28;21039;-74
2021/08/07 07:51:37;;;;;;;1.63;1.30;;;19.90;98.00;;;;;;5063529;28;20940;-74
2021/08/07 07:54:04;;;;;;;1.20;1.20;;;19.90;98.00;;;;;;5059673;28;20807;-73
2021/08/07 07:56:31;;;;;;;2.37;1.30;;;20.00;98.00;;;;;;5076992;28;20529;-73
2021/08/07 07:59:00;;;;;;;1.73;1.30;;;20.00;98.00;;;;;;5079713;28;20541;-73
2021/08/07 08:01:27;;;;;;;1.60;1.40;;;20.00;98.00;;;;;;5080441;28;20561;-74
2021/08/07 08:03:54;;;;;;;1.20;1.10;;;20.20;98.00;;;;;;5051837;28;20518;-74
2021/08/07 08:06:21;;;;;;;1.20;1.13;;;20.20;98.00;;;;;;5083492;28;20460;-74
2021/08/07 08:08:48;;;;;;;1.80;1.40;;;20.20;98.00;;;;;;5077481;28;20456;-74
2021/08/07 08:11:16;;;;;;;1.40;1.27;;;20.40;98.00;;;;;;5085991;28;20464;-74
2021/08/07 08:13:43;;;;;;;1.20;1.20;;;20.60;98.00;;;;;;5053434;28;20453;-73
2021/08/07 08:16:11;;;;;;;1.73;1.50;;;20.70;98.00;;;;;;5082669;28;20500;-75
2021/08/07 08:18:39;;;;;;;1.20;1.10;;;20.90;98.00;;;;;;5065801;28;20453;-74
2021/08/07 08:21:07;;;;;;;1.30;1.30;;;21.10;98.00;;;;;;5082754;28;20492;-74
2021/08/07 08:23:34;;;;;;;1.20;1.00;;;21.30;98.00;;;;;;5073129;28;20460;-73
2021/08/07 08:26:02;;;;;;;1.30;1.20;;;21.50;98.00;;;;;;5070783;28;20485;-73
2021/08/07 08:28:29;;;;;;;1.70;1.30;;;21.70;98.00;;;;;;5086589;28;20953;-73
2021/08/07 08:30:58;;;;;;;1.40;1.30;;;21.90;98.00;;;;;;5076437;28;20487;-73
2021/08/07 08:33:27;;;;;;;1.20;1.20;;;22.00;98.00;;;;;;5086233;28;20505;-73
2021/08/07 08:35:54;;;;;;;1.20;1.20;;;22.00;98.00;;;;;;5080426;28;20459;-73
2021/08/07 08:38:21;;;;;;;1.50;1.30;;;22.10;98.00;;;;;;5046412;28;20483;-73
2021/08/07 08:40:48;;;;;;;1.30;1.30;;;22.10;98.00;;;;;;5080256;28;20793;-73
2021/08/07 08:43:16;;;;;;;1.27;1.13;;;22.10;98.00;;;;;;5081666;28;20476;-73
2021/08/07 08:45:45;;;;;;;1.67;1.20;;;22.20;98.00;;;;;;5076836;28;21002;-73
2021/08/07 08:48:13;;;;;;;1.20;1.20;;;22.40;98.00;;;;;;5055634;28;20932;-73
2021/08/07 08:50:41;;;;;;;1.30;1.10;;;22.50;98.00;;;;;;5079568;28;20467;-73
2021/08/07 08:53:08;;;;;;;1.20;1.13;;;22.50;98.00;;;;;;5089211;28;20451;-73
2021/08/07 08:55:37;;;;;;;1.60;1.20;;;22.50;98.00;;;;;;5089987;28;20513;-73
2021/08/07 08:58:04;;;;;;;1.40;1.20;;;22.60;98.00;;;;;;5088585;28;20821;-73
2021/08/07 09:00:31;;;;;;;1.23;1.17;;;22.60;98.00;;;;;;5066568;28;20514;-73
2021/08/07 09:02:59;;;;;;;1.30;1.13;;;22.60;98.00;;;;;;5054973;28;20499;-73
2021/08/07 09:05:26;;;;;;;1.20;1.20;;;22.60;98.00;;;;;;5085011;28;20541;-73
2021/08/07 09:07:54;;;;;;;1.40;1.30;;;22.60;98.00;;;;;;5075919;28;20480;-73
2021/08/07 09:10:23;;;;;;;1.40;1.40;;;22.60;98.00;;;;;;5080359;28;20488;-73
2021/08/07 09:12:52;;;;;;;1.20;1.00;;;22.60;98.00;;;;;;5074217;28;20456;-73
2021/08/07 09:15:27;;;;;;;1.20;1.10;;;22.60;98.00;;;;;;5055256;28;20691;-73
2021/08/07 09:18:17;;;;;;;1.80;1.50;;;22.60;98.00;;;;;;5055045;28;20529;-73
2021/08/07 09:20:47;;;;;;;1.33;1.10;;;22.60;98.00;;;;;;5087412;28;20509;-73
2021/08/07 09:23:16;;;;;;;1.30;1.10;;;22.60;98.00;;;;;;5063462;28;20457;-73
2021/08/07 09:25:45;;;;;;;1.77;1.30;;;22.70;98.00;;;;;;5079946;28;20697;-73
2021/08/07 09:28:12;;;;;;;1.20;1.10;;;22.90;98.00;;;;;;5071794;28;20516;-73
2021/08/07 09:30:41;;;;;;;1.40;1.30;;;23.00;98.00;;;;;;5080375;28;20461;-74
2021/08/07 09:33:11;;;;;;;1.50;1.10;;;23.10;98.00;;;;;;5062111;28;20472;-73
2021/08/07 09:35:40;;;;;;;1.20;1.10;;;23.10;98.00;;;;;;5080453;28;20951;-73
2021/08/07 09:38:14;;;;;;;1.30;1.20;;;23.10;98.00;;;;;;5079940;28;20496;-74
2021/08/07 09:40:48;;;;;;;1.20;1.17;;;23.00;98.00;;;;;;5079312;28;21018;-75
2021/08/07 09:43:18;;;;;;;1.20;1.20;;;23.00;98.00;;;;;;5071154;28;20457;-74
2021/08/07 09:45:45;;;;;;;1.40;1.20;;;22.90;98.00;;;;;;5080700;28;20940;-74
2021/08/07 09:48:15;;;;;;;1.30;1.20;;;22.90;98.00;;;;;;5071194;28;20506;-73
2021/08/07 09:50:43;;;;;;;1.20;1.17;;;22.80;98.00;;;;;;5059164;28;20865;-74
2021/08/07 09:53:20;;;;;;;1.87;1.40;;;22.80;98.00;;;;;;5087872;28;20460;-73
2021/08/07 09:56:06;;;;;;;1.40;1.23;;;22.70;98.00;;;;;;5078363;28;20578;-74
2021/08/07 09:58:33;;;;;;;1.30;1.30;;;22.60;98.00;;;;;;5084060;28;20953;-75
2021/08/07 10:01:01;;;;;;;1.70;1.30;;;22.50;98.00;;;;;;5083416;28;20550;-75
2021/08/07 10:03:32;;;;;;;1.30;1.20;;;22.50;98.00;;;;;;5070936;28;20506;-75
2021/08/07 10:06:20;;;;;;;3.50;1.30;;;22.40;98.00;;;;;;5075151;28;20989;-75
2021/08/07 10:08:49;;;;;;;1.30;1.30;;;22.30;98.00;;;;;;5088185;28;20479;-75
2021/08/07 10:11:19;;;;;;;1.20;1.07;;;22.10;98.00;;;;;;5080436;28;20484;-75
2021/08/07 10:13:47;;;;;;;1.20;1.13;;;22.00;98.00;;;;;;5082377;28;20953;-74
2021/08/07 10:16:14;;;;;;;1.20;1.10;;;22.00;98.00;;;;;;5087218;28;20466;-75
2021/08/07 10:18:43;;;;;;;1.20;1.20;;;21.90;98.00;;;;;;5071858;28;20468;-75
2021/08/07 10:21:11;;;;;;;1.60;1.30;;;21.70;98.00;;;;;;5076829;28;20448;-75
2021/08/07 10:23:38;;;;;;;1.73;1.30;;;21.70;98.00;;;;;;5080867;28;21039;-74
2021/08/07 10:26:08;;;;;;;1.77;1.47;;;21.70;98.00;;;;;;5086980;28;20491;-74
2021/08/07 10:28:42;;;;;;;1.30;1.10;;;21.60;98.00;;;;;;5079214;28;20468;-74
2021/08/07 10:31:14;;;;;;;1.30;1.30;;;21.50;98.00;;;;;;5071841;28;20469;-74
2021/08/07 10:33:44;;;;;;;1.30;1.20;;;21.30;98.00;;;;;;5071431;28;20460;-74
2021/08/07 10:36:11;;;;;;;1.20;1.20;;;21.20;98.00;;;;;;5079054;28;20449;-76
2021/08/07 10:38:39;;;;;;;1.20;1.17;;;21.20;98.00;;;;;;5079211;28;20498;-76
2021/08/07 10:41:08;;;;;;;1.20;1.20;;;21.20;98.00;;;;;;5053018;28;20461;-75
2021/08/07 10:43:38;;;;;;;1.20;1.20;;;21.10;98.00;;;;;;5086517;28;20457;-75
2021/08/07 10:46:07;;;;;;;1.70;1.27;;;21.00;98.00;;;;;;5087645;28;20527;-75
2021/08/07 10:48:36;;;;;;;1.50;1.30;;;20.90;98.00;;;;;;5077716;28;20501;-76
2021/08/07 10:51:31;;;;;;;2.03;1.30;;;20.90;98.00;;;;;;5076479;28;20463;-74
2021/08/07 10:54:00;;;;;;;1.40;1.30;;;20.70;98.00;;;;;;5061281;28;20886;-74
2021/08/07 10:56:43;;;;;;;1.40;1.30;;;20.60;98.00;;;;;;5070326;28;20495;-74
2021/08/07 10:59:23;;;;;;;1.20;1.10;;;20.50;98.00;;;;;;5074900;28;20813;-74
2021/08/07 11:01:51;;;;;;;1.50;1.30;;;20.50;98.00;;;;;;5081314;28;20514;-74
2021/08/07 11:04:21;;;;;;;1.20;1.17;;;20.40;98.00;;;;;;5085243;28;20539;-75
2021/08/07 11:07:03;;;;;;;2.03;1.30;;;20.40;98.00;;;;;;5086866;28;20843;-75
2021/08/07 11:09:37;;;;;;;1.70;1.60;;;20.50;98.00;;;;;;5071119;28;20467;-75
2021/08/07 11:12:30;;;;;;;1.30;1.20;;;20.60;98.00;;;;;;5078391;28;20553;-74
2021/08/07 11:15:09;;;;;;;1.80;1.37;;;20.60;98.00;;;;;;5080080;28;20484;-73
2021/08/07 11:17:48;;;;;;;1.20;1.20;;;20.60;98.00;;;;;;5083735;28;20457;-74
2021/08/07 11:20:38;;;;;;;1.20;1.10;;;20.50;98.00;;;;;;5070998;28;20477;-73
2021/08/07 11:23:10;;;;;;;1.20;1.10;;;20.50;98.00;;;;;;5079172;28;20460;-74
2021/08/07 11:25:55;;;;;;;1.20;1.20;;;20.50;98.00;;;;;;5069230;28;20560;-75
2021/08/07 11:28:22;;;;;;;1.77;1.50;;;20.40;98.00;;;;;;5072284;28;20460;-74
2021/08/07 11:31:15;;;;;;;1.37;1.33;;;20.30;98.00;;;;;;5078990;28;20501;-74
2021/08/07 11:33:42;;;;;;;1.30;1.23;;;20.30;98.00;;;;;;5074131;28;20452;-73
2021/08/07 11:36:12;;;;;;;1.37;1.17;;;20.30;98.00;;;;;;5070579;28;20874;-73
2021/08/07 11:39:05;;;;;;;1.40;1.30;;;20.20;98.00;;;;;;5076582;28;20508;-73
2021/08/07 11:41:35;;;;;;;1.30;1.20;;;20.10;98.00;;;;;;5059041;28;20456;-73
2021/08/07 11:44:04;;;;;;;1.20;1.10;;;20.10;98.00;;;;;;5070051;28;20492;-74
2021/08/07 11:46:40;;;;;;;1.20;1.20;;;20.00;98.00;;;;;;5078195;28;20593;-73
2021/08/07 11:49:07;;;;;;;1.57;1.30;;;20.00;98.00;;;;;;5077179;28;20448;-75
2021/08/07 11:51:36;;;;;;;1.37;1.20;;;19.90;98.00;;;;;;5077905;28;20942;-74
2021/08/07 11:54:06;;;;;;;1.80;1.30;;;19.80;98.00;;;;;;5070552;28;20464;-74
2021/08/07 11:56:37;;;;;;;1.30;1.20;;;19.80;98.00;;;;;;5053351;28;20942;-74
2021/08/07 11:59:05;;;;;;;1.60;1.10;;;19.80;98.00;;;;;;5070499;28;20464;-73
2021/08/07 12:01:34;;;;;;;1.57;1.13;;;19.70;98.00;;;;;;5074835;28;20453;-74
2021/08/07 12:04:03;;;;;;;1.30;1.20;;;19.70;98.00;;;;;;5040621;28;20499;-73
2021/08/07 12:06:32;;;;;;;1.40;1.30;;;19.70;98.00;;;;;;5074755;28;21096;-74
2021/08/07 12:09:00;;;;;;;2.97;1.60;;;19.70;98.00;;;;;;5074530;28;20460;-74
2021/08/07 12:11:27;;;;;;;1.20;1.20;;;19.70;98.00;;;;;;5074642;28;20861;-74
2021/08/07 12:13:56;;;;;;;7.13;1.50;;;19.80;98.00;;;;;;5074597;28;21009;-74
2021/08/07 12:16:28;;;;;;;1.20;1.10;;;19.80;98.00;;;;;;5074710;28;20534;-74
2021/08/07 12:18:57;;;;;;;1.20;1.10;;;19.70;98.00;;;;;;5074397;28;20456;-74
2021/08/07 12:21:32;;;;;;;1.20;1.20;;;19.70;98.00;;;;;;5074458;28;20455;-73
2021/08/07 12:24:02;;;;;;;1.20;1.07;;;19.80;98.00;;;;;;5074416;28;20494;-73
2021/08/07 12:26:32;;;;;;;1.40;1.40;;;19.70;98.00;;;;;;5074287;28;20492;-75
2021/08/07 12:29:03;;;;;;;1.23;1.17;;;19.80;98.00;;;;;;5074380;28;20912;-73
2021/08/07 12:31:45;;;;;;;1.47;1.40;;;20.00;98.00;;;;;;5074275;28;20476;-73
2021/08/07 12:34:17;;;;;;;2.33;1.27;;;19.90;98.00;;;;;;5074068;28;20472;-74
2021/08/07 12:36:59;;;;;;;1.20;1.10;;;19.90;98.00;;;;;;5074220;28;20870;-73
2021/08/07 12:39:27;;;;;;;1.50;1.37;;;19.90;98.00;;;;;;5074032;28;20492;-73
2021/08/07 12:41:55;;;;;;;1.40;1.20;;;19.90;98.00;;;;;;5074212;28;20457;-74
2021/08/07 12:44:23;;;;;;;1.43;1.30;;;19.90;98.00;;;;;;5073092;28;20453;-74
2021/08/07 12:46:53;;;;;;;1.20;1.20;;;19.80;98.00;;;;;;5073904;28;20520;-74
2021/08/07 12:49:36;;;;;;;1.20;1.10;;;19.80;98.00;;;;;;5074051;28;20826;-74
2021/08/07 12:52:06;;;;;;;1.30;1.30;;;19.80;98.00;;;;;;5071554;28;20457;-73
2021/08/07 12:54:34;;;;;;;1.30;1.10;;;19.60;98.00;;;;;;5073746;28;20450;-73
2021/08/07 12:57:01;;;;;;;1.40;1.30;;;19.70;98.00;;;;;;5074023;28;20461;-74
2021/08/07 12:59:28;;;;;;;1.20;1.10;;;19.70;98.00;;;;;;5073735;28;20452;-74